createdAt,value
2023-05-02T00:04:24.840Z,9.47
2023-05-02T00:09:32.834Z,9.46
2023-05-02T00:14:41.358Z,9.45
2023-05-02T00:19:49.211Z,9.44
2023-05-02T00:25:00.667Z,9.44
2023-05-02T00:30:10.537Z,9.43
2023-05-02T00:35:17.842Z,9.43
2023-05-02T00:40:25.388Z,9.42
2023-05-02T00:45:33.436Z,9.42
2023-05-02T00:50:42.432Z,9.41
2023-05-02T00:55:50.308Z,9.40
2023-05-02T01:01:10.231Z,9.40
2023-05-02T01:06:30.934Z,9.39
2023-05-02T01:11:50.044Z,9.39
2023-05-02T01:16:59.213Z,9.38
2023-05-02T01:22:10.918Z,9.36
2023-05-02T01:27:33.076Z,9.35
2023-05-02T01:32:43.459Z,9.34
2023-05-02T01:37:53.991Z,9.33
2023-05-02T01:43:05.663Z,9.31
2023-05-02T01:48:16.351Z,9.28
2023-05-02T01:53:25.277Z,9.26
2023-05-02T01:58:36.191Z,9.23
2023-05-02T02:03:43.924Z,9.21
2023-05-02T02:08:51.922Z,9.18
2023-05-02T02:14:08.385Z,9.16
2023-05-02T02:19:18.876Z,9.13
2023-05-02T02:24:28.343Z,9.10
2023-05-02T02:29:36.414Z,9.09
2023-05-02T02:34:44.926Z,9.07
2023-05-02T02:39:59.121Z,9.04
2023-05-02T02:45:15.910Z,9.04
2023-05-02T02:50:31.997Z,9.03
2023-05-02T02:55:47.969Z,9.02
2023-05-02T03:00:56.346Z,9.02
2023-05-02T03:06:06.021Z,9.03
2023-05-02T03:11:13.820Z,9.03
2023-05-02T03:16:37.905Z,9.02
2023-05-02T03:21:46.569Z,9.02
2023-05-02T03:26:59.523Z,9.01
2023-05-02T03:32:10.241Z,9.01
2023-05-02T03:37:18.411Z,9.00
2023-05-02T03:42:26.207Z,9.00
2023-05-02T03:47:33.537Z,9.01
2023-05-02T03:52:41.145Z,9.02
2023-05-02T03:57:49.071Z,9.04
2023-05-02T04:02:56.557Z,9.07
2023-05-02T04:08:07.371Z,9.12
2023-05-02T04:13:14.693Z,9.18
2023-05-02T04:18:25.190Z,9.25
2023-05-02T04:23:33.116Z,9.33
2023-05-02T04:28:42.485Z,9.41
2023-05-02T04:33:50.609Z,9.49
2023-05-02T04:39:05.264Z,9.59
2023-05-02T04:44:13.915Z,9.69
2023-05-02T04:49:21.903Z,9.78
2023-05-02T04:54:29.750Z,9.88
2023-05-02T04:59:37.725Z,9.98
2023-05-02T05:04:46.185Z,10.10
2023-05-02T05:09:54.554Z,10.23
2023-05-02T05:15:04.691Z,10.37
2023-05-02T05:20:13.245Z,10.51
2023-05-02T05:25:21.672Z,10.66
2023-05-02T05:30:31.375Z,10.85
2023-05-02T05:35:40.303Z,11.04
2023-05-02T05:40:51.046Z,11.20
2023-05-02T05:45:59.502Z,11.33
2023-05-02T05:51:09.754Z,11.44
2023-05-02T05:56:18.714Z,11.57
2023-05-02T06:01:34.477Z,11.70
2023-05-02T06:11:50.354Z,11.92
2023-05-02T06:17:00.515Z,12.03
2023-05-02T06:22:08.456Z,12.16
2023-05-02T06:27:15.946Z,12.31
2023-05-02T06:32:23.728Z,12.50
2023-05-02T06:37:34.700Z,12.71
2023-05-02T06:42:42.604Z,12.90
2023-05-02T06:47:50.044Z,13.09
2023-05-02T06:52:57.664Z,13.29
2023-05-02T06:58:05.377Z,13.47
2023-05-02T07:03:13.185Z,13.65
2023-05-02T07:08:23.013Z,13.81
2023-05-02T07:13:30.593Z,13.99
2023-05-02T07:18:38.198Z,14.14
2023-05-02T07:23:45.904Z,14.26
2023-05-02T07:28:53.251Z,14.37
2023-05-02T07:34:00.772Z,14.47
2023-05-02T07:39:08.597Z,14.57
2023-05-02T07:44:16.724Z,14.66
2023-05-02T07:49:24.254Z,14.75
2023-05-02T07:54:31.632Z,14.84
2023-05-02T07:59:39.262Z,14.93
2023-05-02T08:04:47.345Z,15.02
2023-05-02T08:09:55.108Z,15.11
2023-05-02T08:15:06.950Z,15.20
2023-05-02T08:20:15.807Z,15.26
2023-05-02T08:25:24.021Z,15.33
2023-05-02T08:30:31.633Z,15.41
2023-05-02T08:35:39.307Z,15.47
2023-05-02T08:40:47.622Z,15.50
2023-05-02T08:46:02.173Z,15.52
2023-05-02T08:51:13.490Z,15.51
2023-05-02T08:56:21.111Z,15.50
2023-05-02T09:01:33.130Z,15.47
2023-05-02T09:06:40.905Z,15.42
2023-05-02T09:11:51.213Z,15.37
2023-05-02T09:17:02.909Z,15.31
2023-05-02T09:22:10.571Z,15.24
2023-05-02T09:27:18.536Z,15.21
2023-05-02T09:32:51.714Z,15.20
2023-05-02T09:38:00.023Z,15.19
2023-05-02T09:43:19.458Z,15.18
2023-05-02T09:48:28.355Z,15.15
2023-05-02T09:53:45.706Z,15.13
2023-05-02T09:58:53.650Z,15.12
2023-05-02T10:04:01.639Z,15.13
2023-05-02T10:09:09.202Z,15.15
2023-05-02T10:14:18.053Z,15.17
2023-05-02T10:19:31.852Z,15.20
2023-05-02T10:24:40.447Z,15.23
2023-05-02T10:29:48.283Z,15.27
2023-05-02T10:34:58.732Z,15.30
2023-05-02T10:40:08.016Z,15.33
2023-05-02T10:45:32.789Z,15.33
2023-05-02T10:50:49.385Z,15.31
2023-05-02T10:56:18.592Z,15.27
2023-05-02T11:01:43.523Z,15.22
2023-05-02T11:07:20.998Z,15.15
2023-05-02T11:12:49.510Z,15.08
2023-05-02T11:18:13.681Z,15.00
2023-05-02T11:23:30.850Z,14.93
2023-05-02T11:28:48.637Z,14.89
2023-05-02T11:34:01.367Z,14.86
2023-05-02T11:39:20.589Z,14.85
2023-05-02T11:44:28.925Z,14.87
2023-05-02T11:49:36.699Z,14.92
2023-05-02T11:54:44.322Z,15.01
2023-05-02T11:59:55.735Z,15.12
2023-05-02T12:05:04.238Z,15.23
2023-05-02T12:10:13.939Z,15.33
2023-05-02T12:15:21.893Z,15.45
2023-05-02T12:20:29.777Z,15.56
2023-05-02T12:25:41.771Z,15.66
2023-05-02T12:30:48.942Z,15.79
2023-05-02T12:35:56.748Z,15.93
2023-05-02T12:41:04.382Z,16.06
2023-05-02T12:46:16.322Z,16.19
2023-05-02T12:51:26.226Z,16.32
2023-05-02T12:56:40.569Z,16.45
2023-05-02T13:01:48.548Z,16.57
2023-05-02T13:06:56.167Z,16.67
2023-05-02T13:12:04.416Z,16.78
2023-05-02T13:17:12.187Z,16.87
2023-05-02T13:22:19.742Z,16.94
2023-05-02T13:27:28.624Z,17.01
2023-05-02T13:32:36.116Z,17.05
2023-05-02T13:37:43.947Z,17.11
2023-05-02T13:42:51.595Z,17.15
2023-05-02T13:47:58.968Z,17.21
2023-05-02T13:53:06.703Z,17.26
2023-05-02T13:58:14.384Z,17.29
2023-05-02T14:03:23.193Z,17.35
2023-05-02T14:08:30.697Z,17.39
2023-05-02T14:13:38.073Z,17.43
2023-05-02T14:18:47.295Z,17.45
2023-05-02T14:23:55.094Z,17.44
2023-05-02T14:29:02.728Z,17.42
2023-05-02T14:34:10.520Z,17.39
2023-05-02T14:39:18.088Z,17.36
2023-05-02T14:44:26.291Z,17.33
2023-05-02T14:49:33.931Z,17.29
2023-05-02T14:54:41.704Z,17.24
2023-05-02T14:59:49.682Z,17.20
2023-05-02T15:04:57.184Z,17.14
2023-05-02T15:10:04.894Z,17.06
2023-05-02T15:15:14.959Z,16.98
2023-05-02T15:20:22.662Z,16.90
2023-05-02T15:25:30.376Z,16.79
2023-05-02T15:30:37.753Z,16.70
2023-05-02T15:35:54.985Z,16.59
2023-05-02T15:41:03.054Z,16.47
2023-05-02T15:46:10.812Z,16.36
2023-05-02T15:51:18.752Z,16.23
2023-05-02T15:56:26.730Z,16.10
2023-05-02T16:01:34.551Z,15.96
2023-05-02T16:06:42.912Z,15.81
2023-05-02T16:11:50.655Z,15.66
2023-05-02T16:17:01.008Z,15.51
2023-05-02T16:22:09.079Z,15.36
2023-05-02T16:27:16.531Z,15.21
2023-05-02T16:32:25.348Z,15.05
2023-05-02T16:37:34.968Z,14.91
2023-05-02T16:42:42.608Z,14.75
2023-05-02T16:47:50.571Z,14.61
2023-05-02T16:52:58.301Z,14.46
2023-05-02T16:58:06.961Z,14.32
2023-05-02T17:03:14.677Z,14.18
2023-05-02T17:08:22.351Z,14.05
2023-05-02T17:13:29.882Z,13.92
2023-05-02T17:18:37.579Z,13.80
2023-05-02T17:23:45.166Z,13.67
2023-05-02T17:28:54.015Z,13.55
2023-05-02T17:34:01.561Z,13.43
2023-05-02T17:39:09.096Z,13.31
2023-05-02T17:44:16.740Z,13.21
2023-05-02T17:49:24.411Z,13.09
2023-05-02T17:54:32.083Z,13.00
2023-05-02T17:59:42.345Z,12.90
2023-05-02T18:04:50.191Z,12.80
2023-05-02T18:09:57.862Z,12.70
2023-05-02T18:15:06.836Z,12.60
2023-05-02T18:20:15.365Z,12.52
2023-05-02T18:25:23.087Z,12.42
2023-05-02T18:30:30.690Z,12.34
2023-05-02T18:35:38.085Z,12.26
2023-05-02T18:40:45.720Z,12.18
2023-05-02T18:45:53.427Z,12.11
2023-05-02T18:51:01.803Z,12.03
2023-05-02T18:56:16.078Z,11.97
2023-05-02T19:01:23.688Z,11.90
2023-05-02T19:06:32.060Z,11.84
2023-05-02T19:11:39.749Z,11.78
2023-05-02T19:16:47.866Z,11.73
2023-05-02T19:21:55.933Z,11.67
2023-05-02T19:27:04.710Z,11.62
2023-05-02T19:32:12.267Z,11.57
2023-05-02T19:37:19.943Z,11.53
2023-05-02T19:42:28.055Z,11.48
2023-05-02T19:47:35.810Z,11.41
2023-05-02T19:52:44.928Z,11.35
2023-05-02T19:57:52.746Z,11.28
2023-05-02T20:03:00.464Z,11.21
2023-05-02T20:08:08.517Z,11.13
2023-05-02T20:13:16.136Z,11.06
2023-05-02T20:18:23.894Z,10.98
2023-05-02T20:23:31.213Z,10.91
2023-05-02T20:28:38.970Z,10.83
2023-05-02T20:33:46.514Z,10.74
2023-05-02T20:38:54.007Z,10.65
2023-05-02T20:44:03.124Z,10.56
2023-05-02T20:49:10.636Z,10.47
2023-05-02T20:54:18.303Z,10.37
2023-05-02T20:59:26.613Z,10.27
2023-05-02T21:04:34.063Z,10.18
2023-05-02T21:09:41.699Z,10.08
2023-05-02T21:14:49.224Z,9.99
2023-05-02T21:19:58.247Z,9.90
2023-05-02T21:25:06.025Z,9.80
2023-05-02T21:30:15.294Z,9.70
2023-05-02T21:35:23.122Z,9.61
2023-05-02T21:40:32.272Z,9.51
2023-05-02T21:45:47.464Z,9.41
2023-05-02T21:50:55.136Z,9.30
2023-05-02T21:56:02.591Z,9.20
2023-05-02T22:01:10.215Z,9.09
2023-05-02T22:06:18.035Z,8.98
2023-05-02T22:11:25.960Z,8.88
2023-05-02T22:16:33.452Z,8.77
2023-05-02T22:21:40.891Z,8.66
2023-05-02T22:26:50.399Z,8.54
2023-05-02T22:31:58.123Z,8.42
2023-05-02T22:37:05.735Z,8.29
2023-05-02T22:42:13.239Z,8.15
2023-05-02T22:47:21.730Z,8.02
2023-05-02T22:52:30.496Z,7.88
2023-05-02T22:57:38.306Z,7.75
2023-05-02T23:02:46.162Z,7.63
2023-05-02T23:07:53.771Z,7.50
2023-05-02T23:13:01.301Z,7.38
2023-05-02T23:18:08.878Z,7.35
2023-05-02T23:23:16.342Z,7.50
2023-05-02T23:28:23.702Z,7.55
2023-05-02T23:33:31.471Z,7.56
2023-05-02T23:38:40.099Z,7.57
2023-05-02T23:43:47.613Z,7.55
2023-05-02T23:48:55.050Z,7.52
2023-05-02T23:54:02.343Z,7.48
2023-05-02T23:59:09.786Z,7.45
